MMPN/UPN METAR and TAF weather

Enter ICAO airport designator
Station Type Date Time Source
MMPN METAR 2019/04/25 17:40 UTC NOAA

MMPN 251740Z 00000KT 8SM BKN270 25/01 A3016 RMK SLP/// 5//// 9// 8/001 HZY FU


Station Type Date Time Source
MMPN Decoded METAR 2019/04/25 17:40 UTC NOAA

Uruapan / Gen Rayon, Mexico (MMPN) 19-24N 102-02W
Apr 25, 2019 - 01:40 PM EDT / 2019.04.25 1740 UTC
Wind: Calm:0
Visibility: 8 mile(s):0
Sky conditions: mostly cloudy
Temperature: 77 F (25 C)
Dew Point: 33 F (1 C)
Relative Humidity: 20%
Pressure (altimeter): 30.16 in. Hg (1021 hPa)
ob: MMPN 251740Z 00000KT 8SM BKN270 25/01 A3016 RMK SLP/// 5//// 9// 8/001 HZY FU
cycle: 17

Station Type Date Time Source
MMPN TAF 2019/04/25 18:32 UTC NOAA

TAF MMPN 251627Z 2518/2618 18010KT P6SM BKN250
FM260300 00000KT P6SM BKN200
FM261200 00000KT 5SM HZ FU BKN200

Example: see airport list